createdAt,value
2022-08-16T00:01:16.125Z,21.94
2022-08-16T00:03:43.943Z,21.97
2022-08-16T00:06:11.436Z,21.98
2022-08-16T00:08:45.841Z,21.92
2022-08-16T00:11:15.153Z,21.67
2022-08-16T00:13:43.188Z,21.78
2022-08-16T00:17:06.532Z,21.89
2022-08-16T00:19:07.543Z,21.97
2022-08-16T00:21:35.040Z,21.87
2022-08-16T00:24:04.754Z,21.79
2022-08-16T00:26:35.001Z,21.67
2022-08-16T00:29:05.015Z,21.72
2022-08-16T00:31:59.146Z,21.83
2022-08-16T00:34:22.149Z,21.74
2022-08-16T00:37:09.489Z,21.81
2022-08-16T00:39:36.961Z,21.72
2022-08-16T00:42:10.271Z,21.74
2022-08-16T00:44:37.831Z,21.62
2022-08-16T00:47:08.669Z,21.70
2022-08-16T00:49:39.113Z,21.88
2022-08-16T00:52:30.216Z,22.09
2022-08-16T00:54:59.453Z,22.10
2022-08-16T00:57:27.641Z,22.12
2022-08-16T01:00:19.850Z,22.17
2022-08-16T01:02:48.977Z,22.04
2022-08-16T01:05:16.444Z,21.88
2022-08-16T01:07:51.591Z,21.92
2022-08-16T01:10:32.691Z,22.01
2022-08-16T01:13:02.362Z,22.02
2022-08-16T01:15:33.917Z,21.99
2022-08-16T01:18:02.361Z,21.96
2022-08-16T01:20:33.978Z,21.62
2022-08-16T01:23:10.308Z,21.77
2022-08-16T01:25:41.935Z,21.92
2022-08-16T01:28:20.243Z,21.89
2022-08-16T01:30:53.542Z,21.75
2022-08-16T01:33:22.401Z,21.88
2022-08-16T01:35:54.218Z,22.06
2022-08-16T01:38:28.343Z,22.12
2022-08-16T01:41:19.278Z,22.08
2022-08-16T01:43:53.762Z,21.95
2022-08-16T01:46:37.860Z,21.81
2022-08-16T01:49:15.621Z,21.74
2022-08-16T01:51:45.287Z,21.68
2022-08-16T01:54:15.355Z,21.64
2022-08-16T01:56:52.010Z,21.65
2022-08-16T01:59:21.486Z,21.54
2022-08-16T02:01:53.165Z,21.40
2022-08-16T02:04:49.126Z,21.29
2022-08-16T02:07:18.760Z,21.27
2022-08-16T02:09:57.015Z,21.33
2022-08-16T02:12:50.244Z,21.39
2022-08-16T02:15:24.755Z,21.43
2022-08-16T02:17:53.252Z,21.55
2022-08-16T02:20:26.423Z,21.59
2022-08-16T02:22:56.626Z,21.51
2022-08-16T02:25:24.377Z,21.35
2022-08-16T02:27:51.800Z,21.28
2022-08-16T02:30:36.006Z,21.34
2022-08-16T02:33:10.248Z,21.41
2022-08-16T02:35:54.029Z,21.43
2022-08-16T02:38:28.712Z,21.44
2022-08-16T02:41:01.814Z,21.50
2022-08-16T02:43:33.139Z,21.42
2022-08-16T02:46:07.551Z,21.43
2022-08-16T02:48:38.485Z,21.45
2022-08-16T02:51:11.358Z,21.57
2022-08-16T02:53:43.311Z,21.54
2022-08-16T02:56:15.124Z,21.41
2022-08-16T02:58:44.837Z,21.41
2022-08-16T03:01:25.430Z,21.38
2022-08-16T03:04:30.044Z,21.33
2022-08-16T03:06:56.505Z,21.32
2022-08-16T03:09:36.671Z,21.41
2022-08-16T03:12:04.644Z,21.46
2022-08-16T03:14:32.851Z,21.50
2022-08-16T03:17:02.079Z,21.46
2022-08-16T03:19:48.119Z,21.49
2022-08-16T03:22:28.869Z,21.47
2022-08-16T03:25:07.351Z,21.40
2022-08-16T03:27:39.047Z,21.27
2022-08-16T03:30:17.576Z,21.21
2022-08-16T03:32:55.202Z,21.25
2022-08-16T03:35:33.505Z,21.17
2022-08-16T03:38:32.471Z,21.11
2022-08-16T03:40:56.665Z,21.06
2022-08-16T03:43:51.270Z,21.02
2022-08-16T03:46:44.961Z,21.12
2022-08-16T03:49:12.639Z,21.17
2022-08-16T03:51:43.245Z,21.23
2022-08-16T03:54:16.846Z,21.36
2022-08-16T03:56:57.630Z,21.47
2022-08-16T03:59:29.340Z,21.15
2022-08-16T04:01:58.978Z,21.03
2022-08-16T04:04:33.056Z,21.11
2022-08-16T04:07:04.147Z,21.17
2022-08-16T04:09:35.221Z,21.20
2022-08-16T04:12:10.542Z,21.19
2022-08-16T04:14:46.656Z,21.18
2022-08-16T04:17:16.381Z,21.12
2022-08-16T04:19:45.650Z,21.14
2022-08-16T04:22:17.322Z,21.13
2022-08-16T04:24:54.861Z,21.14
2022-08-16T04:27:29.019Z,21.12
2022-08-16T04:30:03.084Z,21.07
2022-08-16T04:32:33.859Z,21.06
2022-08-16T04:35:12.396Z,20.97
2022-08-16T04:37:47.265Z,20.89
2022-08-16T04:40:25.591Z,20.91
2022-08-16T04:42:54.993Z,21.01
2022-08-16T04:45:35.579Z,21.04
2022-08-16T04:48:10.650Z,20.85
2022-08-16T04:50:48.040Z,20.78
2022-08-16T04:53:17.832Z,20.90
2022-08-16T04:55:53.479Z,21.01
2022-08-16T04:58:38.453Z,21.05
2022-08-16T05:01:10.765Z,21.10
2022-08-16T05:03:41.892Z,21.15
2022-08-16T05:06:45.039Z,21.18
2022-08-16T05:09:22.885Z,21.25
2022-08-16T05:11:53.196Z,21.30
2022-08-16T05:14:46.131Z,21.27
2022-08-16T05:17:13.609Z,21.38
2022-08-16T05:19:46.821Z,21.39
2022-08-16T05:22:28.198Z,21.45
2022-08-16T05:24:56.633Z,21.47
2022-08-16T05:27:24.449Z,21.46
2022-08-16T05:30:00.097Z,21.48
2022-08-16T05:32:32.630Z,21.52
2022-08-16T05:35:03.558Z,21.54
2022-08-16T05:37:39.794Z,21.56
2022-08-16T05:40:10.625Z,21.67
2022-08-16T05:42:45.962Z,21.79
2022-08-16T05:45:22.252Z,21.94
2022-08-16T05:48:00.347Z,21.94
2022-08-16T05:50:37.168Z,21.94
2022-08-16T05:53:08.846Z,21.92
2022-08-16T05:55:44.606Z,21.97
2022-08-16T05:58:31.373Z,22.09
2022-08-16T06:00:59.505Z,22.15
2022-08-16T06:03:29.626Z,22.26
2022-08-16T06:06:08.738Z,22.35
2022-08-16T06:08:44.829Z,22.35
2022-08-16T06:11:15.696Z,22.31
2022-08-16T06:13:47.953Z,22.03
2022-08-16T06:16:22.332Z,21.76
2022-08-16T06:18:54.440Z,21.95
2022-08-16T06:21:23.941Z,21.85
2022-08-16T06:23:57.349Z,21.69
2022-08-16T06:26:36.813Z,21.96
2022-08-16T06:29:04.560Z,22.18
2022-08-16T06:31:46.749Z,22.39
2022-08-16T06:34:55.703Z,22.57
2022-08-16T06:37:08.388Z,22.78
2022-08-16T06:39:49.663Z,22.64
2022-08-16T06:42:47.562Z,22.93
2022-08-16T06:45:37.944Z,23.05
2022-08-16T06:48:14.184Z,23.10
2022-08-16T06:50:48.667Z,23.18
2022-08-16T06:53:16.752Z,23.30
2022-08-16T06:55:58.774Z,23.50
2022-08-16T06:58:32.452Z,23.56
2022-08-16T07:01:14.835Z,23.12
2022-08-16T07:03:55.241Z,23.19
2022-08-16T07:06:27.661Z,23.27
2022-08-16T07:09:00.082Z,23.16
2022-08-16T07:11:48.254Z,23.13
2022-08-16T07:14:27.461Z,23.38
2022-08-16T07:16:59.440Z,23.41
2022-08-16T07:19:33.692Z,23.25
2022-08-16T07:22:39.023Z,23.46
2022-08-16T07:25:10.396Z,23.47
2022-08-16T07:27:40.024Z,23.41
2022-08-16T07:30:40.438Z,23.62
2022-08-16T07:33:02.237Z,23.91
2022-08-16T07:35:30.347Z,23.98
2022-08-16T07:37:58.431Z,24.15
2022-08-16T07:40:58.038Z,24.29
2022-08-16T07:43:19.009Z,24.36
2022-08-16T07:45:53.236Z,24.34
2022-08-16T07:48:22.043Z,24.46
2022-08-16T07:50:58.728Z,24.48
2022-08-16T07:53:30.040Z,24.57
2022-08-16T07:55:58.116Z,24.46
2022-08-16T07:58:34.677Z,24.58
2022-08-16T08:01:10.410Z,24.76
2022-08-16T08:03:44.947Z,24.88
2022-08-16T08:06:20.152Z,24.80
2022-08-16T08:08:50.541Z,24.92
2022-08-16T08:11:23.651Z,24.95
2022-08-16T08:13:53.725Z,25.04
2022-08-16T08:16:22.098Z,24.99
2022-08-16T08:19:01.333Z,24.95
2022-08-16T08:21:59.138Z,24.96
2022-08-16T08:24:32.298Z,25.18
2022-08-16T08:27:02.120Z,25.26
2022-08-16T08:29:37.246Z,25.34
2022-08-16T08:32:57.789Z,25.28
2022-08-16T08:35:03.213Z,25.51
2022-08-16T08:37:53.946Z,25.55
2022-08-16T08:40:24.308Z,25.89
2022-08-16T08:43:11.984Z,26.05
2022-08-16T08:45:53.204Z,26.19
2022-08-16T08:48:34.341Z,26.16
2022-08-16T08:51:08.930Z,26.40
2022-08-16T08:53:43.230Z,26.02
2022-08-16T08:56:23.306Z,26.14
2022-08-16T08:59:04.739Z,26.09
2022-08-16T09:01:42.703Z,26.44
2022-08-16T09:04:14.697Z,26.84
2022-08-16T09:06:46.552Z,27.19
2022-08-16T09:09:16.797Z,27.44
2022-08-16T09:11:53.333Z,27.49
2022-08-16T09:14:28.374Z,27.10
2022-08-16T09:17:01.065Z,27.09
2022-08-16T09:19:34.584Z,27.47
2022-08-16T09:22:02.137Z,27.44
2022-08-16T09:24:52.210Z,27.48
2022-08-16T09:27:17.332Z,27.76
2022-08-16T09:29:46.631Z,27.96
2022-08-16T09:32:28.819Z,28.17
2022-08-16T09:34:59.552Z,29.15
2022-08-16T09:37:36.788Z,28.97
2022-08-16T09:40:05.429Z,27.67
2022-08-16T09:43:05.863Z,27.77
2022-08-16T09:45:39.031Z,27.87
2022-08-16T09:48:06.969Z,27.88
2022-08-16T09:50:37.093Z,27.72
2022-08-16T09:53:08.381Z,27.56
2022-08-16T09:55:44.931Z,27.52
2022-08-16T09:58:37.638Z,27.56
2022-08-16T10:01:04.386Z,27.62
2022-08-16T10:03:32.234Z,27.44
2022-08-16T10:06:00.148Z,27.39
2022-08-16T10:08:27.677Z,27.39
2022-08-16T10:11:13.825Z,27.55
2022-08-16T10:13:43.881Z,27.27
2022-08-16T10:18:56.424Z,27.28
2022-08-16T10:21:32.146Z,27.05
2022-08-16T10:23:59.717Z,27.16
2022-08-16T10:27:19.425Z,27.18
2022-08-16T10:29:20.195Z,27.31
2022-08-16T10:31:53.874Z,27.33
2022-08-16T10:34:32.058Z,27.33
2022-08-16T10:37:00.656Z,27.47
2022-08-16T10:39:41.133Z,27.59
2022-08-16T10:42:13.258Z,27.56
2022-08-16T10:44:42.287Z,27.69
2022-08-16T10:47:10.083Z,27.67
2022-08-16T10:49:39.276Z,27.76
2022-08-16T10:52:18.837Z,27.79
2022-08-16T10:57:34.851Z,27.44
2022-08-16T11:00:19.136Z,27.49
2022-08-16T11:02:58.197Z,27.50
2022-08-16T11:08:31.370Z,27.56
2022-08-16T11:11:06.422Z,27.65
2022-08-16T11:16:26.571Z,27.89
2022-08-16T11:19:05.868Z,27.98
2022-08-16T11:24:41.495Z,28.12
2022-08-16T11:27:35.294Z,28.02
2022-08-16T11:30:00.329Z,27.85
2022-08-16T11:32:31.786Z,27.76
2022-08-16T11:35:11.063Z,27.88
2022-08-16T11:40:32.853Z,28.16
2022-08-16T11:43:04.655Z,28.25
2022-08-16T11:45:36.756Z,28.30
2022-08-16T11:48:04.663Z,28.34
2022-08-16T11:50:33.708Z,28.37
2022-08-16T11:53:02.390Z,28.39
2022-08-16T11:55:32.198Z,28.39
2022-08-16T11:58:00.395Z,28.39
2022-08-16T12:00:33.906Z,28.43
2022-08-16T12:03:16.412Z,28.49
2022-08-16T12:05:44.688Z,28.52
2022-08-16T12:08:11.906Z,28.51
2022-08-16T12:10:43.264Z,28.61
2022-08-16T12:13:10.855Z,28.51
2022-08-16T12:15:38.708Z,28.43
2022-08-16T12:18:08.450Z,28.50
2022-08-16T12:20:38.762Z,28.53
2022-08-16T12:23:07.629Z,28.48
2022-08-16T12:25:35.420Z,28.52
2022-08-16T12:28:02.990Z,28.61
2022-08-16T12:30:38.449Z,28.51
2022-08-16T12:33:07.217Z,28.55
2022-08-16T12:35:35.673Z,28.60
2022-08-16T12:38:38.062Z,28.62
2022-08-16T12:40:52.961Z,28.60
2022-08-16T12:43:23.788Z,28.48
2022-08-16T12:45:52.794Z,28.62
2022-08-16T12:48:40.175Z,28.69
2022-08-16T12:51:19.397Z,28.70
2022-08-16T12:53:53.747Z,28.75
2022-08-16T12:56:25.198Z,28.84
2022-08-16T12:58:53.341Z,28.89
2022-08-16T13:01:27.492Z,28.81
2022-08-16T13:04:03.497Z,28.64
2022-08-16T13:06:40.082Z,28.54
2022-08-16T13:09:26.065Z,28.56
2022-08-16T13:12:03.637Z,28.60
2022-08-16T13:14:33.697Z,28.72
2022-08-16T13:17:02.637Z,28.72
2022-08-16T13:20:03.437Z,28.82
2022-08-16T13:22:19.839Z,28.86
2022-08-16T13:24:47.921Z,28.92
2022-08-16T13:27:15.349Z,28.79
2022-08-16T13:29:43.884Z,28.71
2022-08-16T13:32:39.341Z,28.73
2022-08-16T13:34:58.986Z,28.75
2022-08-16T13:37:28.484Z,28.76
2022-08-16T13:39:55.815Z,28.80
2022-08-16T13:42:25.201Z,28.97
2022-08-16T13:44:56.339Z,28.89
2022-08-16T13:47:30.044Z,28.84
2022-08-16T13:49:57.683Z,28.94
2022-08-16T13:52:25.357Z,28.92
2022-08-16T13:55:01.729Z,28.96
2022-08-16T13:58:26.765Z,28.96
2022-08-16T14:00:19.342Z,29.07
2022-08-16T14:02:47.770Z,29.27
2022-08-16T14:05:20.089Z,29.38
2022-08-16T14:07:52.774Z,29.31
2022-08-16T14:10:21.620Z,29.27
2022-08-16T14:12:49.233Z,29.27
2022-08-16T14:15:17.515Z,29.23
2022-08-16T14:18:15.269Z,29.28
2022-08-16T14:20:32.057Z,29.22
2022-08-16T14:22:59.409Z,29.18
2022-08-16T14:25:26.979Z,29.19
2022-08-16T14:27:55.058Z,29.20
2022-08-16T14:30:24.309Z,29.19
2022-08-16T14:32:53.181Z,29.21
2022-08-16T14:35:36.471Z,29.19
2022-08-16T14:38:10.025Z,29.21
2022-08-16T14:40:42.619Z,29.23
2022-08-16T14:43:15.462Z,29.26
2022-08-16T14:45:42.909Z,29.22
2022-08-16T14:48:10.401Z,29.27
2022-08-16T14:50:37.603Z,29.30
2022-08-16T14:53:07.113Z,29.35
2022-08-16T14:55:36.522Z,29.34
2022-08-16T14:58:04.597Z,29.33
2022-08-16T15:00:36.319Z,29.33
2022-08-16T15:03:05.821Z,29.33
2022-08-16T15:05:33.284Z,29.28
2022-08-16T15:08:02.464Z,29.27
2022-08-16T15:10:32.342Z,29.28
2022-08-16T15:13:01.074Z,29.30
2022-08-16T15:15:29.213Z,29.40
2022-08-16T15:17:57.468Z,29.40
2022-08-16T15:20:26.777Z,29.37
2022-08-16T15:22:55.308Z,29.31
2022-08-16T15:25:29.296Z,29.31
2022-08-16T15:27:58.053Z,29.32
2022-08-16T15:30:57.711Z,29.41
2022-08-16T15:33:17.420Z,29.34
2022-08-16T15:35:46.310Z,29.30
2022-08-16T15:38:58.190Z,29.31
2022-08-16T15:41:01.191Z,29.29
2022-08-16T15:43:39.334Z,29.28
2022-08-16T15:46:35.685Z,29.23
2022-08-16T15:49:12.413Z,29.20
2022-08-16T15:51:40.022Z,29.22
2022-08-16T15:54:29.032Z,29.19
2022-08-16T15:56:55.469Z,29.23
2022-08-16T15:59:26.981Z,29.30
2022-08-16T16:01:56.476Z,29.29
2022-08-16T16:04:25.817Z,29.25
2022-08-16T16:06:55.125Z,29.20
2022-08-16T16:09:36.523Z,29.23
2022-08-16T16:12:16.191Z,29.25
2022-08-16T16:14:52.999Z,29.25
2022-08-16T16:17:20.200Z,29.27
2022-08-16T16:19:53.590Z,29.21
2022-08-16T16:22:21.915Z,29.18
2022-08-16T16:24:52.561Z,29.13
2022-08-16T16:27:19.770Z,29.13
2022-08-16T16:29:50.856Z,29.13
2022-08-16T16:32:34.245Z,29.15
2022-08-16T16:35:02.343Z,29.18
2022-08-16T16:37:31.144Z,29.14
2022-08-16T16:39:59.671Z,29.14
2022-08-16T16:42:30.359Z,29.15
2022-08-16T16:45:01.441Z,29.10
2022-08-16T16:47:41.543Z,29.09
2022-08-16T16:50:10.243Z,29.08
2022-08-16T16:52:43.881Z,29.04
2022-08-16T16:55:12.754Z,28.99
2022-08-16T16:57:58.221Z,29.01
2022-08-16T17:00:30.278Z,29.01
2022-08-16T17:03:05.651Z,28.99
2022-08-16T17:05:32.891Z,28.98
2022-08-16T17:08:00.252Z,28.97
2022-08-16T17:10:45.888Z,28.94
2022-08-16T17:13:15.314Z,28.93
2022-08-16T17:15:42.458Z,28.94
2022-08-16T17:19:16.578Z,28.92
2022-08-16T17:20:57.507Z,28.88
2022-08-16T17:23:58.663Z,28.86
2022-08-16T17:26:12.791Z,28.84
2022-08-16T17:28:57.949Z,28.82
2022-08-16T17:31:38.430Z,28.88
2022-08-16T17:34:29.203Z,28.83
2022-08-16T17:36:56.577Z,28.75
2022-08-16T17:39:29.645Z,28.72
2022-08-16T17:41:57.842Z,28.70
2022-08-16T17:44:25.337Z,28.66
2022-08-16T17:46:53.128Z,28.64
2022-08-16T17:49:25.198Z,28.61
2022-08-16T17:51:52.628Z,28.59
2022-08-16T17:54:30.356Z,28.55
2022-08-16T17:57:00.858Z,28.52
2022-08-16T17:59:29.299Z,28.51
2022-08-16T18:01:57.285Z,28.51
2022-08-16T18:04:48.251Z,28.48
2022-08-16T18:07:12.679Z,28.44
2022-08-16T18:09:40.878Z,28.43
2022-08-16T18:12:44.223Z,28.42
2022-08-16T18:15:06.160Z,28.37
2022-08-16T18:17:33.769Z,28.32
2022-08-16T18:20:01.338Z,28.28
2022-08-16T18:22:30.705Z,28.23
2022-08-16T18:24:58.790Z,28.19
2022-08-16T18:27:27.375Z,28.16
2022-08-16T18:29:54.912Z,28.13
2022-08-16T18:32:24.715Z,28.09
2022-08-16T18:34:54.986Z,28.05
2022-08-16T18:37:25.051Z,28.03
2022-08-16T18:39:52.585Z,28.01
2022-08-16T18:42:20.931Z,27.99
2022-08-16T18:44:54.197Z,27.97
2022-08-16T18:47:21.810Z,27.93
2022-08-16T18:49:49.028Z,27.95
2022-08-16T18:52:25.200Z,27.95
2022-08-16T18:55:01.451Z,27.95
2022-08-16T18:57:30.407Z,28.03
2022-08-16T18:59:57.646Z,28.10
2022-08-16T19:02:57.981Z,28.06
2022-08-16T19:05:24.525Z,28.01
2022-08-16T19:07:51.812Z,28.05
2022-08-16T19:10:19.459Z,28.02
2022-08-16T19:12:46.697Z,27.99
2022-08-16T19:15:16.284Z,27.91
2022-08-16T19:17:44.242Z,27.88
2022-08-16T19:20:11.901Z,27.88
2022-08-16T19:23:02.367Z,27.88
2022-08-16T19:25:49.177Z,27.87
2022-08-16T19:28:49.736Z,27.85
2022-08-16T19:31:04.950Z,27.78
2022-08-16T19:33:32.607Z,27.78
2022-08-16T19:36:00.126Z,27.78
2022-08-16T19:38:27.634Z,27.75
2022-08-16T19:40:54.822Z,27.73
2022-08-16T19:43:22.733Z,27.62
2022-08-16T19:45:51.954Z,27.56
2022-08-16T19:48:19.409Z,27.54
2022-08-16T19:50:46.639Z,27.43
2022-08-16T19:53:18.795Z,27.38
2022-08-16T19:55:47.532Z,27.27
2022-08-16T19:58:15.946Z,27.25
2022-08-16T20:00:45.209Z,27.20
2022-08-16T20:03:15.644Z,27.21
2022-08-16T20:05:43.499Z,27.18
2022-08-16T20:08:11.544Z,27.06
2022-08-16T20:10:39.829Z,26.97
2022-08-16T20:13:15.087Z,26.93
2022-08-16T20:15:43.221Z,26.95
2022-08-16T20:18:24.444Z,26.99
2022-08-16T20:20:53.500Z,26.90
2022-08-16T20:23:24.921Z,26.89
2022-08-16T20:25:53.506Z,26.78
2022-08-16T20:28:39.498Z,26.75
2022-08-16T20:31:07.940Z,26.67
2022-08-16T20:33:35.177Z,26.68
2022-08-16T20:36:02.436Z,26.74
2022-08-16T20:38:31.559Z,26.75
2022-08-16T20:40:58.731Z,26.69
2022-08-16T20:43:25.961Z,26.70
2022-08-16T20:45:53.329Z,26.53
2022-08-16T20:48:20.593Z,26.44
2022-08-16T20:50:47.838Z,26.44
2022-08-16T20:53:15.168Z,26.35
2022-08-16T20:55:44.291Z,26.39
2022-08-16T20:58:11.681Z,26.23
2022-08-16T21:00:39.170Z,26.22
2022-08-16T21:03:10.890Z,26.19
2022-08-16T21:05:38.238Z,26.19
2022-08-16T21:08:46.536Z,26.11
2022-08-16T21:10:53.213Z,26.07
2022-08-16T21:13:21.058Z,26.06
2022-08-16T21:15:49.010Z,26.00
2022-08-16T21:18:16.268Z,25.97
2022-08-16T21:20:43.550Z,25.91
2022-08-16T21:23:11.317Z,25.90
2022-08-16T21:25:53.743Z,25.91
2022-08-16T21:28:39.959Z,26.02
2022-08-16T21:31:13.846Z,26.06
2022-08-16T21:33:41.459Z,26.10
2022-08-16T21:36:09.792Z,26.17
2022-08-16T21:38:37.191Z,26.12
2022-08-16T21:41:05.676Z,26.06
2022-08-16T21:43:33.635Z,26.02
2022-08-16T21:46:01.664Z,26.09
2022-08-16T21:48:33.761Z,26.07
2022-08-16T21:51:13.793Z,26.08
2022-08-16T21:53:42.027Z,26.04
2022-08-16T21:56:12.676Z,26.00
2022-08-16T21:58:45.361Z,26.06
2022-08-16T22:01:13.260Z,26.10
2022-08-16T22:03:40.614Z,26.01
2022-08-16T22:06:12.091Z,26.00
2022-08-16T22:08:50.340Z,25.98
2022-08-16T22:11:19.245Z,25.92
2022-08-16T22:13:56.463Z,25.94
2022-08-16T22:16:30.043Z,26.00
2022-08-16T22:18:57.327Z,26.07
2022-08-16T22:21:24.594Z,26.06
2022-08-16T22:23:57.234Z,26.00
2022-08-16T22:26:31.670Z,26.04
2022-08-16T22:29:00.956Z,25.94
2022-08-16T22:31:28.376Z,25.82
2022-08-16T22:33:56.706Z,25.74
2022-08-16T22:36:28.458Z,25.67
2022-08-16T22:38:59.785Z,25.71
2022-08-16T22:41:27.945Z,25.73
2022-08-16T22:43:55.646Z,25.69
2022-08-16T22:46:23.267Z,25.82
2022-08-16T22:48:51.050Z,25.92
2022-08-16T22:51:22.772Z,25.93
2022-08-16T22:53:50.288Z,25.92
2022-08-16T22:56:17.621Z,25.96
2022-08-16T22:58:45.846Z,25.98
2022-08-16T23:01:14.093Z,25.94
2022-08-16T23:03:41.584Z,25.87
2022-08-16T23:06:10.326Z,25.73
2022-08-16T23:08:40.886Z,25.72
2022-08-16T23:11:13.151Z,25.82
2022-08-16T23:13:53.115Z,25.66
2022-08-16T23:16:32.345Z,25.62
2022-08-16T23:19:02.214Z,25.75
2022-08-16T23:21:29.567Z,25.62
2022-08-16T23:23:56.834Z,25.55
2022-08-16T23:26:45.366Z,25.46
2022-08-16T23:29:15.563Z,25.59
2022-08-16T23:31:49.800Z,25.66
2022-08-16T23:34:17.092Z,25.71
2022-08-16T23:36:44.417Z,25.87
2022-08-16T23:39:11.686Z,25.87
2022-08-16T23:41:39.160Z,25.72
2022-08-16T23:44:44.111Z,25.66
2022-08-16T23:46:53.782Z,25.61
2022-08-16T23:49:58.779Z,25.52
2022-08-16T23:52:10.126Z,25.49
2022-08-16T23:54:37.432Z,25.51
2022-08-16T23:57:04.798Z,25.54
2022-08-16T23:59:48.606Z,25.62
